sensor_id;sensor_type;location;lat;lon;timestamp;P1;durP1;ratioP1;P2;durP2;ratioP2
14272;SDS011;7220;49.450;11.052;2022-07-05T00:02:55;2.53;;;1.02;;
14272;SDS011;7220;49.450;11.052;2022-07-05T00:06:56;1.25;;;1.13;;
14272;SDS011;7220;49.450;11.052;2022-07-05T00:11:15;4.65;;;1.20;;
14272;SDS011;7220;49.450;11.052;2022-07-05T00:15:16;2.53;;;1.20;;
14272;SDS011;7220;49.450;11.052;2022-07-05T00:19:17;1.75;;;1.02;;
14272;SDS011;7220;49.450;11.052;2022-07-05T00:23:18;1.27;;;1.10;;
14272;SDS011;7220;49.450;11.052;2022-07-05T00:27:18;4.40;;;1.50;;
14272;SDS011;7220;49.450;11.052;2022-07-05T00:31:19;1.30;;;1.10;;
14272;SDS011;7220;49.450;11.052;2022-07-05T00:35:20;1.45;;;1.20;;
14272;SDS011;7220;49.450;11.052;2022-07-05T00:39:20;1.30;;;1.20;;
14272;SDS011;7220;49.450;11.052;2022-07-05T00:43:20;1.50;;;1.40;;
14272;SDS011;7220;49.450;11.052;2022-07-05T00:47:21;2.42;;;1.27;;
14272;SDS011;7220;49.450;11.052;2022-07-05T00:51:22;1.58;;;1.23;;
14272;SDS011;7220;49.450;11.052;2022-07-05T00:55:23;1.85;;;1.48;;
14272;SDS011;7220;49.450;11.052;2022-07-05T00:59:24;2.20;;;1.25;;
14272;SDS011;7220;49.450;11.052;2022-07-05T01:03:25;1.70;;;1.30;;
14272;SDS011;7220;49.450;11.052;2022-07-05T01:07:28;1.52;;;1.20;;
14272;SDS011;7220;49.450;11.052;2022-07-05T01:11:28;1.05;;;1.05;;
14272;SDS011;7220;49.450;11.052;2022-07-05T01:15:29;1.83;;;1.42;;
14272;SDS011;7220;49.450;11.052;2022-07-05T01:19:30;1.63;;;1.40;;
14272;SDS011;7220;49.450;11.052;2022-07-05T01:23:31;1.50;;;1.40;;
14272;SDS011;7220;49.450;11.052;2022-07-05T01:27:32;1.60;;;1.50;;
14272;SDS011;7220;49.450;11.052;2022-07-05T01:31:35;1.48;;;1.35;;
14272;SDS011;7220;49.450;11.052;2022-07-05T01:35:36;1.83;;;1.42;;
14272;SDS011;7220;49.450;11.052;2022-07-05T01:39:37;2.13;;;1.35;;
14272;SDS011;7220;49.450;11.052;2022-07-05T01:43:38;2.42;;;1.30;;
14272;SDS011;7220;49.450;11.052;2022-07-05T01:47:40;4.97;;;1.50;;
14272;SDS011;7220;49.450;11.052;2022-07-05T01:51:51;3.38;;;1.40;;
14272;SDS011;7220;49.450;11.052;2022-07-05T01:56:00;2.35;;;1.52;;
14272;SDS011;7220;49.450;11.052;2022-07-05T02:00:02;2.47;;;1.27;;
14272;SDS011;7220;49.450;11.052;2022-07-05T02:04:04;1.60;;;1.50;;
14272;SDS011;7220;49.450;11.052;2022-07-05T02:08:06;1.90;;;1.55;;
14272;SDS011;7220;49.450;11.052;2022-07-05T02:12:06;1.42;;;1.33;;
14272;SDS011;7220;49.450;11.052;2022-07-05T02:16:07;2.33;;;1.80;;
14272;SDS011;7220;49.450;11.052;2022-07-05T02:20:07;2.45;;;1.58;;
14272;SDS011;7220;49.450;11.052;2022-07-05T02:24:08;1.58;;;1.48;;
14272;SDS011;7220;49.450;11.052;2022-07-05T02:28:09;2.13;;;1.58;;
14272;SDS011;7220;49.450;11.052;2022-07-05T02:32:09;1.60;;;1.48;;
14272;SDS011;7220;49.450;11.052;2022-07-05T02:36:10;3.15;;;1.90;;
14272;SDS011;7220;49.450;11.052;2022-07-05T02:40:12;1.63;;;1.50;;
14272;SDS011;7220;49.450;11.052;2022-07-05T02:44:13;2.55;;;1.73;;
14272;SDS011;7220;49.450;11.052;2022-07-05T02:48:13;2.63;;;1.58;;
14272;SDS011;7220;49.450;11.052;2022-07-05T02:52:14;3.30;;;1.52;;
14272;SDS011;7220;49.450;11.052;2022-07-05T02:56:14;2.53;;;1.70;;
14272;SDS011;7220;49.450;11.052;2022-07-05T03:00:15;2.55;;;1.70;;
14272;SDS011;7220;49.450;11.052;2022-07-05T03:04:15;1.83;;;1.50;;
14272;SDS011;7220;49.450;11.052;2022-07-05T03:08:16;4.18;;;1.85;;
14272;SDS011;7220;49.450;11.052;2022-07-05T03:12:16;3.83;;;1.77;;
14272;SDS011;7220;49.450;11.052;2022-07-05T03:16:17;2.17;;;1.40;;
14272;SDS011;7220;49.450;11.052;2022-07-05T03:20:17;2.20;;;2.00;;
14272;SDS011;7220;49.450;11.052;2022-07-05T03:24:18;2.40;;;1.90;;
14272;SDS011;7220;49.450;11.052;2022-07-05T03:28:18;1.60;;;1.50;;
14272;SDS011;7220;49.450;11.052;2022-07-05T03:32:19;1.95;;;1.50;;
14272;SDS011;7220;49.450;11.052;2022-07-05T03:36:19;2.85;;;1.80;;
14272;SDS011;7220;49.450;11.052;2022-07-05T03:40:20;2.70;;;1.75;;
14272;SDS011;7220;49.450;11.052;2022-07-05T03:44:20;2.00;;;1.70;;
14272;SDS011;7220;49.450;11.052;2022-07-05T03:48:20;1.83;;;1.73;;
14272;SDS011;7220;49.450;11.052;2022-07-05T03:52:21;2.75;;;1.80;;
14272;SDS011;7220;49.450;11.052;2022-07-05T03:56:21;2.38;;;1.98;;
14272;SDS011;7220;49.450;11.052;2022-07-05T04:00:23;3.38;;;2.20;;
14272;SDS011;7220;49.450;11.052;2022-07-05T04:04:23;4.72;;;2.00;;
14272;SDS011;7220;49.450;11.052;2022-07-05T04:08:24;5.78;;;2.20;;
14272;SDS011;7220;49.450;11.052;2022-07-05T04:12:24;2.05;;;1.83;;
14272;SDS011;7220;49.450;11.052;2022-07-05T04:16:25;2.67;;;2.08;;
14272;SDS011;7220;49.450;11.052;2022-07-05T04:20:26;4.05;;;2.22;;
14272;SDS011;7220;49.450;11.052;2022-07-05T04:24:26;4.03;;;2.17;;
14272;SDS011;7220;49.450;11.052;2022-07-05T04:28:27;2.63;;;1.85;;
14272;SDS011;7220;49.450;11.052;2022-07-05T04:32:29;3.85;;;1.98;;
14272;SDS011;7220;49.450;11.052;2022-07-05T04:36:30;3.65;;;2.17;;
14272;SDS011;7220;49.450;11.052;2022-07-05T04:40:30;2.75;;;2.03;;
14272;SDS011;7220;49.450;11.052;2022-07-05T04:44:31;1.98;;;1.88;;
14272;SDS011;7220;49.450;11.052;2022-07-05T04:48:31;2.22;;;2.03;;
14272;SDS011;7220;49.450;11.052;2022-07-05T04:52:32;2.22;;;1.92;;
14272;SDS011;7220;49.450;11.052;2022-07-05T04:56:32;2.20;;;2.00;;
14272;SDS011;7220;49.450;11.052;2022-07-05T05:00:33;2.88;;;2.28;;
14272;SDS011;7220;49.450;11.052;2022-07-05T05:04:34;2.72;;;2.10;;
14272;SDS011;7220;49.450;11.052;2022-07-05T05:08:34;2.40;;;2.20;;
14272;SDS011;7220;49.450;11.052;2022-07-05T05:12:35;2.40;;;2.20;;
14272;SDS011;7220;49.450;11.052;2022-07-05T05:16:35;4.35;;;2.25;;
14272;SDS011;7220;49.450;11.052;2022-07-05T05:20:36;3.65;;;2.63;;
14272;SDS011;7220;49.450;11.052;2022-07-05T05:24:37;2.08;;;1.92;;
14272;SDS011;7220;49.450;11.052;2022-07-05T05:28:37;3.50;;;2.30;;
14272;SDS011;7220;49.450;11.052;2022-07-05T05:32:39;3.42;;;2.55;;
14272;SDS011;7220;49.450;11.052;2022-07-05T05:36:39;5.72;;;2.60;;
14272;SDS011;7220;49.450;11.052;2022-07-05T05:40:40;3.10;;;2.35;;
14272;SDS011;7220;49.450;11.052;2022-07-05T05:44:42;2.97;;;2.05;;
14272;SDS011;7220;49.450;11.052;2022-07-05T05:48:42;2.75;;;2.40;;
14272;SDS011;7220;49.450;11.052;2022-07-05T05:52:43;6.35;;;2.35;;
14272;SDS011;7220;49.450;11.052;2022-07-05T05:56:43;6.40;;;2.80;;
14272;SDS011;7220;49.450;11.052;2022-07-05T06:00:45;4.55;;;2.90;;
14272;SDS011;7220;49.450;11.052;2022-07-05T06:04:48;5.85;;;2.90;;
14272;SDS011;7220;49.450;11.052;2022-07-05T06:08:48;4.93;;;2.55;;
14272;SDS011;7220;49.450;11.052;2022-07-05T06:12:49;2.63;;;2.30;;
14272;SDS011;7220;49.450;11.052;2022-07-05T06:16:50;3.88;;;2.38;;
14272;SDS011;7220;49.450;11.052;2022-07-05T06:20:51;4.65;;;2.60;;
14272;SDS011;7220;49.450;11.052;2022-07-05T06:24:51;4.93;;;2.15;;
14272;SDS011;7220;49.450;11.052;2022-07-05T06:28:52;3.47;;;2.40;;
14272;SDS011;7220;49.450;11.052;2022-07-05T06:32:52;10.13;;;2.45;;
14272;SDS011;7220;49.450;11.052;2022-07-05T06:36:53;2.30;;;2.10;;
14272;SDS011;7220;49.450;11.052;2022-07-05T06:40:54;4.70;;;2.25;;
14272;SDS011;7220;49.450;11.052;2022-07-05T06:44:56;4.22;;;2.10;;
14272;SDS011;7220;49.450;11.052;2022-07-05T06:48:57;2.55;;;2.03;;
14272;SDS011;7220;49.450;11.052;2022-07-05T06:52:57;3.85;;;2.38;;
14272;SDS011;7220;49.450;11.052;2022-07-05T06:56:58;3.63;;;2.20;;
14272;SDS011;7220;49.450;11.052;2022-07-05T07:00:59;2.72;;;2.10;;
14272;SDS011;7220;49.450;11.052;2022-07-05T07:04:59;4.20;;;2.08;;
14272;SDS011;7220;49.450;11.052;2022-07-05T07:08:59;3.88;;;1.88;;
14272;SDS011;7220;49.450;11.052;2022-07-05T07:13:18;3.90;;;2.50;;
14272;SDS011;7220;49.450;11.052;2022-07-05T07:17:19;5.35;;;2.30;;
14272;SDS011;7220;49.450;11.052;2022-07-05T07:21:20;3.60;;;2.03;;
14272;SDS011;7220;49.450;11.052;2022-07-05T07:25:20;2.70;;;2.10;;
14272;SDS011;7220;49.450;11.052;2022-07-05T07:29:23;3.92;;;2.00;;
14272;SDS011;7220;49.450;11.052;2022-07-05T07:33:23;2.90;;;1.90;;
14272;SDS011;7220;49.450;11.052;2022-07-05T07:37:24;3.13;;;1.80;;
14272;SDS011;7220;49.450;11.052;2022-07-05T07:41:24;1.92;;;1.80;;
14272;SDS011;7220;49.450;11.052;2022-07-05T07:45:25;2.85;;;1.95;;
14272;SDS011;7220;49.450;11.052;2022-07-05T07:49:27;3.60;;;2.00;;
14272;SDS011;7220;49.450;11.052;2022-07-05T07:53:28;5.30;;;2.15;;
14272;SDS011;7220;49.450;11.052;2022-07-05T07:57:28;4.97;;;1.90;;
14272;SDS011;7220;49.450;11.052;2022-07-05T08:01:29;3.67;;;1.65;;
14272;SDS011;7220;49.450;11.052;2022-07-05T08:05:29;3.35;;;1.90;;
14272;SDS011;7220;49.450;11.052;2022-07-05T08:09:30;3.60;;;2.50;;
14272;SDS011;7220;49.450;11.052;2022-07-05T08:13:31;4.03;;;1.63;;
14272;SDS011;7220;49.450;11.052;2022-07-05T08:17:31;1.60;;;1.50;;
14272;SDS011;7220;49.450;11.052;2022-07-05T08:21:32;2.08;;;1.70;;
14272;SDS011;7220;49.450;11.052;2022-07-05T08:25:38;3.58;;;1.23;;
14272;SDS011;7220;49.450;11.052;2022-07-05T08:29:38;2.25;;;1.60;;
14272;SDS011;7220;49.450;11.052;2022-07-05T08:33:39;3.10;;;1.67;;
14272;SDS011;7220;49.450;11.052;2022-07-05T08:37:39;1.98;;;1.73;;
14272;SDS011;7220;49.450;11.052;2022-07-05T08:41:40;1.52;;;1.30;;
14272;SDS011;7220;49.450;11.052;2022-07-05T08:45:43;2.00;;;1.63;;
14272;SDS011;7220;49.450;11.052;2022-07-05T08:49:43;1.70;;;1.35;;
14272;SDS011;7220;49.450;11.052;2022-07-05T08:53:48;2.90;;;1.52;;
14272;SDS011;7220;49.450;11.052;2022-07-05T08:57:49;2.83;;;1.30;;
14272;SDS011;7220;49.450;11.052;2022-07-05T09:01:50;2.42;;;1.70;;
14272;SDS011;7220;49.450;11.052;2022-07-05T09:05:50;2.45;;;2.00;;
14272;SDS011;7220;49.450;11.052;2022-07-05T09:09:56;1.90;;;1.20;;
14272;SDS011;7220;49.450;11.052;2022-07-05T09:14:02;2.80;;;1.27;;
14272;SDS011;7220;49.450;11.052;2022-07-05T09:18:04;1.88;;;1.02;;
14272;SDS011;7220;49.450;11.052;2022-07-05T09:22:05;3.05;;;1.52;;
14272;SDS011;7220;49.450;11.052;2022-07-05T09:26:08;2.67;;;1.30;;
14272;SDS011;7220;49.450;11.052;2022-07-05T09:30:09;1.60;;;1.50;;
14272;SDS011;7220;49.450;11.052;2022-07-05T09:34:11;1.75;;;1.30;;
14272;SDS011;7220;49.450;11.052;2022-07-05T09:38:21;2.67;;;1.50;;
14272;SDS011;7220;49.450;11.052;2022-07-05T09:42:23;1.88;;;1.30;;
14272;SDS011;7220;49.450;11.052;2022-07-05T09:46:29;3.33;;;1.40;;
14272;SDS011;7220;49.450;11.052;2022-07-05T09:50:34;2.08;;;1.23;;
14272;SDS011;7220;49.450;11.052;2022-07-05T09:54:35;2.28;;;1.50;;
14272;SDS011;7220;49.450;11.052;2022-07-05T09:58:35;1.30;;;1.20;;
14272;SDS011;7220;49.450;11.052;2022-07-05T10:02:37;4.68;;;1.33;;
14272;SDS011;7220;49.450;11.052;2022-07-05T10:06:39;1.45;;;1.30;;
14272;SDS011;7220;49.450;11.052;2022-07-05T10:10:39;2.15;;;1.30;;
14272;SDS011;7220;49.450;11.052;2022-07-05T10:14:43;3.65;;;1.63;;
14272;SDS011;7220;49.450;11.052;2022-07-05T10:18:48;2.03;;;1.50;;
14272;SDS011;7220;49.450;11.052;2022-07-05T10:22:52;2.33;;;1.30;;
14272;SDS011;7220;49.450;11.052;2022-07-05T10:26:54;1.48;;;1.38;;
14272;SDS011;7220;49.450;11.052;2022-07-05T10:30:55;1.80;;;1.50;;
14272;SDS011;7220;49.450;11.052;2022-07-05T10:34:57;2.17;;;1.27;;
14272;SDS011;7220;49.450;11.052;2022-07-05T10:38:58;1.50;;;1.25;;
14272;SDS011;7220;49.450;11.052;2022-07-05T10:42:59;2.50;;;1.38;;
14272;SDS011;7220;49.450;11.052;2022-07-05T10:47:08;3.72;;;1.67;;
14272;SDS011;7220;49.450;11.052;2022-07-05T10:55:22;1.60;;;1.40;;
14272;SDS011;7220;49.450;11.052;2022-07-05T10:59:23;3.13;;;1.33;;
14272;SDS011;7220;49.450;11.052;2022-07-05T11:07:57;2.00;;;1.27;;
14272;SDS011;7220;49.450;11.052;2022-07-05T11:12:02;1.88;;;1.30;;
14272;SDS011;7220;49.450;11.052;2022-07-05T11:16:23;2.15;;;1.45;;
14272;SDS011;7220;49.450;11.052;2022-07-05T11:20:31;1.73;;;1.40;;
14272;SDS011;7220;49.450;11.052;2022-07-05T11:24:32;1.67;;;1.58;;
14272;SDS011;7220;49.450;11.052;2022-07-05T11:28:41;1.65;;;1.42;;
14272;SDS011;7220;49.450;11.052;2022-07-05T11:32:43;2.05;;;1.20;;
14272;SDS011;7220;49.450;11.052;2022-07-05T11:36:44;2.10;;;1.40;;
14272;SDS011;7220;49.450;11.052;2022-07-05T11:41:14;1.55;;;1.20;;
14272;SDS011;7220;49.450;11.052;2022-07-05T11:45:15;2.00;;;1.48;;
14272;SDS011;7220;49.450;11.052;2022-07-05T11:49:22;3.42;;;1.33;;
14272;SDS011;7220;49.450;11.052;2022-07-05T11:53:27;2.85;;;1.40;;
14272;SDS011;7220;49.450;11.052;2022-07-05T11:57:28;1.65;;;1.55;;
14272;SDS011;7220;49.450;11.052;2022-07-05T12:01:28;2.70;;;1.40;;
14272;SDS011;7220;49.450;11.052;2022-07-05T12:05:30;3.63;;;1.30;;
14272;SDS011;7220;49.450;11.052;2022-07-05T12:09:32;1.58;;;1.10;;
14272;SDS011;7220;49.450;11.052;2022-07-05T12:13:52;2.55;;;1.38;;
14272;SDS011;7220;49.450;11.052;2022-07-05T12:17:52;1.70;;;1.20;;
14272;SDS011;7220;49.450;11.052;2022-07-05T12:21:54;1.33;;;1.10;;
14272;SDS011;7220;49.450;11.052;2022-07-05T12:25:58;1.80;;;1.30;;
14272;SDS011;7220;49.450;11.052;2022-07-05T12:29:59;1.70;;;1.23;;
14272;SDS011;7220;49.450;11.052;2022-07-05T12:34:18;1.20;;;1.10;;
14272;SDS011;7220;49.450;11.052;2022-07-05T12:38:21;2.80;;;1.50;;
14272;SDS011;7220;49.450;11.052;2022-07-05T12:42:33;1.88;;;1.13;;
14272;SDS011;7220;49.450;11.052;2022-07-05T12:46:39;1.77;;;1.40;;
14272;SDS011;7220;49.450;11.052;2022-07-05T12:50:49;2.55;;;1.38;;
14272;SDS011;7220;49.450;11.052;2022-07-05T12:55:09;1.25;;;1.10;;
14272;SDS011;7220;49.450;11.052;2022-07-05T12:59:28;1.40;;;1.30;;
14272;SDS011;7220;49.450;11.052;2022-07-05T13:03:29;2.42;;;1.10;;
14272;SDS011;7220;49.450;11.052;2022-07-05T13:07:29;3.03;;;0.98;;
14272;SDS011;7220;49.450;11.052;2022-07-05T13:11:32;2.72;;;1.27;;
14272;SDS011;7220;49.450;11.052;2022-07-05T13:15:32;1.98;;;1.02;;
14272;SDS011;7220;49.450;11.052;2022-07-05T13:19:38;2.30;;;1.27;;
14272;SDS011;7220;49.450;11.052;2022-07-05T13:23:39;2.80;;;1.13;;
14272;SDS011;7220;49.450;11.052;2022-07-05T13:27:40;1.83;;;1.20;;
14272;SDS011;7220;49.450;11.052;2022-07-05T13:31:41;3.13;;;1.30;;
14272;SDS011;7220;49.450;11.052;2022-07-05T13:35:42;5.25;;;1.50;;
14272;SDS011;7220;49.450;11.052;2022-07-05T13:39:42;3.63;;;1.30;;
14272;SDS011;7220;49.450;11.052;2022-07-05T13:43:43;2.33;;;1.10;;
14272;SDS011;7220;49.450;11.052;2022-07-05T13:47:44;1.33;;;1.17;;
14272;SDS011;7220;49.450;11.052;2022-07-05T13:51:44;3.47;;;1.30;;
14272;SDS011;7220;49.450;11.052;2022-07-05T13:55:45;4.00;;;1.30;;
14272;SDS011;7220;49.450;11.052;2022-07-05T13:59:46;1.95;;;1.33;;
14272;SDS011;7220;49.450;11.052;2022-07-05T14:03:46;2.33;;;1.60;;
14272;SDS011;7220;49.450;11.052;2022-07-05T14:07:47;2.22;;;1.30;;
14272;SDS011;7220;49.450;11.052;2022-07-05T14:11:48;2.42;;;1.38;;
14272;SDS011;7220;49.450;11.052;2022-07-05T14:15:49;1.55;;;1.45;;
14272;SDS011;7220;49.450;11.052;2022-07-05T14:19:50;1.40;;;1.20;;
14272;SDS011;7220;49.450;11.052;2022-07-05T14:23:50;2.17;;;1.30;;
14272;SDS011;7220;49.450;11.052;2022-07-05T14:27:50;3.30;;;1.20;;
14272;SDS011;7220;49.450;11.052;2022-07-05T14:31:51;2.55;;;1.58;;
14272;SDS011;7220;49.450;11.052;2022-07-05T14:35:51;3.88;;;1.58;;
14272;SDS011;7220;49.450;11.052;2022-07-05T14:39:52;2.90;;;1.50;;
14272;SDS011;7220;49.450;11.052;2022-07-05T14:43:52;1.33;;;1.23;;
14272;SDS011;7220;49.450;11.052;2022-07-05T14:47:54;1.75;;;1.38;;
14272;SDS011;7220;49.450;11.052;2022-07-05T14:51:55;1.27;;;1.10;;
14272;SDS011;7220;49.450;11.052;2022-07-05T14:55:55;2.08;;;1.10;;
14272;SDS011;7220;49.450;11.052;2022-07-05T14:59:56;2.20;;;1.50;;
14272;SDS011;7220;49.450;11.052;2022-07-05T15:03:56;1.55;;;1.45;;
14272;SDS011;7220;49.450;11.052;2022-07-05T15:07:57;1.75;;;1.55;;
14272;SDS011;7220;49.450;11.052;2022-07-05T15:11:57;3.90;;;1.40;;
14272;SDS011;7220;49.450;11.052;2022-07-05T15:15:58;3.38;;;1.80;;
14272;SDS011;7220;49.450;11.052;2022-07-05T15:19:59;1.58;;;1.40;;
14272;SDS011;7220;49.450;11.052;2022-07-05T15:24:00;1.98;;;1.38;;
14272;SDS011;7220;49.450;11.052;2022-07-05T15:28:00;2.00;;;1.50;;
14272;SDS011;7220;49.450;11.052;2022-07-05T15:32:01;2.10;;;1.38;;
14272;SDS011;7220;49.450;11.052;2022-07-05T15:36:01;1.63;;;1.33;;
14272;SDS011;7220;49.450;11.052;2022-07-05T15:40:02;1.40;;;1.30;;
14272;SDS011;7220;49.450;11.052;2022-07-05T15:44:03;1.13;;;1.13;;
14272;SDS011;7220;49.450;11.052;2022-07-05T15:48:04;1.45;;;1.33;;
14272;SDS011;7220;49.450;11.052;2022-07-05T15:52:05;1.85;;;1.30;;
14272;SDS011;7220;49.450;11.052;2022-07-05T15:56:06;1.88;;;1.30;;
14272;SDS011;7220;49.450;11.052;2022-07-05T16:00:07;2.70;;;1.50;;
14272;SDS011;7220;49.450;11.052;2022-07-05T16:04:08;2.53;;;1.50;;
14272;SDS011;7220;49.450;11.052;2022-07-05T16:08:08;2.70;;;1.50;;
14272;SDS011;7220;49.450;11.052;2022-07-05T16:12:09;4.32;;;1.60;;
14272;SDS011;7220;49.450;11.052;2022-07-05T16:16:09;3.65;;;1.80;;
14272;SDS011;7220;49.450;11.052;2022-07-05T16:20:13;1.90;;;1.70;;
14272;SDS011;7220;49.450;11.052;2022-07-05T16:24:13;1.90;;;1.40;;
14272;SDS011;7220;49.450;11.052;2022-07-05T16:28:13;1.95;;;1.25;;
14272;SDS011;7220;49.450;11.052;2022-07-05T16:32:14;1.20;;;1.10;;
14272;SDS011;7220;49.450;11.052;2022-07-05T16:36:15;2.47;;;1.42;;
14272;SDS011;7220;49.450;11.052;2022-07-05T16:40:20;2.55;;;1.40;;
14272;SDS011;7220;49.450;11.052;2022-07-05T16:44:20;1.60;;;1.50;;
14272;SDS011;7220;49.450;11.052;2022-07-05T16:48:21;1.33;;;1.20;;
14272;SDS011;7220;49.450;11.052;2022-07-05T16:52:21;2.15;;;1.40;;
14272;SDS011;7220;49.450;11.052;2022-07-05T16:56:22;2.45;;;1.13;;
14272;SDS011;7220;49.450;11.052;2022-07-05T17:00:22;1.40;;;1.30;;
14272;SDS011;7220;49.450;11.052;2022-07-05T17:04:23;1.50;;;1.40;;
14272;SDS011;7220;49.450;11.052;2022-07-05T17:08:23;1.50;;;1.40;;
14272;SDS011;7220;49.450;11.052;2022-07-05T17:12:24;2.95;;;1.40;;
14272;SDS011;7220;49.450;11.052;2022-07-05T17:16:25;1.60;;;1.50;;
14272;SDS011;7220;49.450;11.052;2022-07-05T17:20:26;2.65;;;1.65;;
14272;SDS011;7220;49.450;11.052;2022-07-05T17:24:27;2.78;;;1.30;;
14272;SDS011;7220;49.450;11.052;2022-07-05T17:28:27;2.53;;;1.40;;
14272;SDS011;7220;49.450;11.052;2022-07-05T17:32:28;3.90;;;1.58;;
14272;SDS011;7220;49.450;11.052;2022-07-05T17:36:28;6.55;;;1.90;;
14272;SDS011;7220;49.450;11.052;2022-07-05T17:40:29;3.85;;;1.75;;
14272;SDS011;7220;49.450;11.052;2022-07-05T17:44:29;1.63;;;1.30;;
14272;SDS011;7220;49.450;11.052;2022-07-05T17:48:30;1.63;;;1.30;;
14272;SDS011;7220;49.450;11.052;2022-07-05T17:52:31;1.42;;;1.30;;
14272;SDS011;7220;49.450;11.052;2022-07-05T17:56:31;2.42;;;1.40;;
14272;SDS011;7220;49.450;11.052;2022-07-05T18:00:34;1.77;;;1.58;;
14272;SDS011;7220;49.450;11.052;2022-07-05T18:04:35;2.90;;;2.10;;
14272;SDS011;7220;49.450;11.052;2022-07-05T18:08:35;3.25;;;1.70;;
14272;SDS011;7220;49.450;11.052;2022-07-05T18:12:36;2.92;;;1.70;;
14272;SDS011;7220;49.450;11.052;2022-07-05T18:16:36;3.03;;;1.75;;
14272;SDS011;7220;49.450;11.052;2022-07-05T18:20:40;1.90;;;1.30;;
14272;SDS011;7220;49.450;11.052;2022-07-05T18:24:41;1.42;;;1.15;;
14272;SDS011;7220;49.450;11.052;2022-07-05T18:28:42;2.20;;;1.60;;
14272;SDS011;7220;49.450;11.052;2022-07-05T18:32:44;2.42;;;1.45;;
14272;SDS011;7220;49.450;11.052;2022-07-05T18:36:45;1.70;;;1.35;;
14272;SDS011;7220;49.450;11.052;2022-07-05T18:40:45;2.85;;;1.58;;
14272;SDS011;7220;49.450;11.052;2022-07-05T18:44:46;1.90;;;1.70;;
14272;SDS011;7220;49.450;11.052;2022-07-05T18:48:46;1.70;;;1.40;;
14272;SDS011;7220;49.450;11.052;2022-07-05T18:52:49;1.85;;;1.40;;
14272;SDS011;7220;49.450;11.052;2022-07-05T18:56:49;3.95;;;1.67;;
14272;SDS011;7220;49.450;11.052;2022-07-05T19:00:50;2.17;;;1.67;;
14272;SDS011;7220;49.450;11.052;2022-07-05T19:04:50;1.60;;;1.50;;
14272;SDS011;7220;49.450;11.052;2022-07-05T19:08:51;1.67;;;1.52;;
14272;SDS011;7220;49.450;11.052;2022-07-05T19:13:10;2.30;;;1.60;;
14272;SDS011;7220;49.450;11.052;2022-07-05T19:17:29;3.83;;;1.40;;
14272;SDS011;7220;49.450;11.052;2022-07-05T19:21:29;2.30;;;1.50;;
14272;SDS011;7220;49.450;11.052;2022-07-05T19:25:30;1.90;;;1.58;;
14272;SDS011;7220;49.450;11.052;2022-07-05T19:29:30;2.58;;;1.85;;
14272;SDS011;7220;49.450;11.052;2022-07-05T19:33:31;2.83;;;1.75;;
14272;SDS011;7220;49.450;11.052;2022-07-05T19:37:31;3.85;;;1.90;;
14272;SDS011;7220;49.450;11.052;2022-07-05T19:41:32;2.58;;;1.80;;
14272;SDS011;7220;49.450;11.052;2022-07-05T19:45:34;3.55;;;1.80;;
14272;SDS011;7220;49.450;11.052;2022-07-05T19:49:35;2.85;;;1.75;;
14272;SDS011;7220;49.450;11.052;2022-07-05T19:53:35;4.80;;;1.92;;
14272;SDS011;7220;49.450;11.052;2022-07-05T19:57:36;3.13;;;1.75;;
14272;SDS011;7220;49.450;11.052;2022-07-05T20:01:36;3.38;;;1.80;;
14272;SDS011;7220;49.450;11.052;2022-07-05T20:05:37;4.47;;;1.63;;
14272;SDS011;7220;49.450;11.052;2022-07-05T20:09:37;3.25;;;1.70;;
14272;SDS011;7220;49.450;11.052;2022-07-05T20:13:37;2.22;;;1.83;;
14272;SDS011;7220;49.450;11.052;2022-07-05T20:17:39;2.03;;;1.83;;
14272;SDS011;7220;49.450;11.052;2022-07-05T20:21:39;2.30;;;1.88;;
14272;SDS011;7220;49.450;11.052;2022-07-05T20:25:40;2.33;;;2.13;;
14272;SDS011;7220;49.450;11.052;2022-07-05T20:29:40;2.60;;;1.90;;
14272;SDS011;7220;49.450;11.052;2022-07-05T20:33:41;2.15;;;1.98;;
14272;SDS011;7220;49.450;11.052;2022-07-05T20:37:42;2.72;;;2.13;;
14272;SDS011;7220;49.450;11.052;2022-07-05T20:41:42;3.20;;;2.13;;
14272;SDS011;7220;49.450;11.052;2022-07-05T20:45:43;3.83;;;2.35;;
14272;SDS011;7220;49.450;11.052;2022-07-05T20:49:43;3.05;;;2.00;;
14272;SDS011;7220;49.450;11.052;2022-07-05T20:53:44;3.20;;;2.20;;
14272;SDS011;7220;49.450;11.052;2022-07-05T20:57:46;2.97;;;2.15;;
14272;SDS011;7220;49.450;11.052;2022-07-05T21:01:47;3.85;;;2.22;;
14272;SDS011;7220;49.450;11.052;2022-07-05T21:05:48;5.45;;;2.10;;
14272;SDS011;7220;49.450;11.052;2022-07-05T21:09:48;7.50;;;2.00;;
14272;SDS011;7220;49.450;11.052;2022-07-05T21:13:49;3.03;;;1.90;;
14272;SDS011;7220;49.450;11.052;2022-07-05T21:17:49;3.60;;;2.00;;
14272;SDS011;7220;49.450;11.052;2022-07-05T21:21:51;2.65;;;1.75;;
14272;SDS011;7220;49.450;11.052;2022-07-05T21:25:59;2.53;;;1.92;;
14272;SDS011;7220;49.450;11.052;2022-07-05T21:29:59;5.95;;;2.03;;
14272;SDS011;7220;49.450;11.052;2022-07-05T21:34:00;3.42;;;2.17;;
14272;SDS011;7220;49.450;11.052;2022-07-05T21:38:01;3.22;;;2.10;;
14272;SDS011;7220;49.450;11.052;2022-07-05T21:42:01;3.67;;;1.92;;
14272;SDS011;7220;49.450;11.052;2022-07-05T21:46:02;3.42;;;2.20;;
14272;SDS011;7220;49.450;11.052;2022-07-05T21:50:02;3.97;;;2.22;;
14272;SDS011;7220;49.450;11.052;2022-07-05T21:54:03;2.47;;;1.85;;
14272;SDS011;7220;49.450;11.052;2022-07-05T21:58:04;3.40;;;1.92;;
14272;SDS011;7220;49.450;11.052;2022-07-05T22:02:04;4.80;;;2.05;;
14272;SDS011;7220;49.450;11.052;2022-07-05T22:06:24;3.35;;;2.10;;
14272;SDS011;7220;49.450;11.052;2022-07-05T22:10:24;2.42;;;2.10;;
14272;SDS011;7220;49.450;11.052;2022-07-05T22:14:24;3.28;;;2.25;;
14272;SDS011;7220;49.450;11.052;2022-07-05T22:18:25;3.03;;;2.13;;
14272;SDS011;7220;49.450;11.052;2022-07-05T22:22:26;3.80;;;2.17;;
14272;SDS011;7220;49.450;11.052;2022-07-05T22:26:26;5.07;;;2.20;;
14272;SDS011;7220;49.450;11.052;2022-07-05T22:30:27;3.13;;;1.83;;
14272;SDS011;7220;49.450;11.052;2022-07-05T22:34:27;2.75;;;2.00;;
14272;SDS011;7220;49.450;11.052;2022-07-05T22:38:27;3.00;;;1.88;;
14272;SDS011;7220;49.450;11.052;2022-07-05T22:42:28;3.92;;;2.50;;
14272;SDS011;7220;49.450;11.052;2022-07-05T22:46:29;2.53;;;2.10;;
14272;SDS011;7220;49.450;11.052;2022-07-05T22:50:30;3.38;;;1.95;;
14272;SDS011;7220;49.450;11.052;2022-07-05T22:54:30;4.03;;;2.05;;
14272;SDS011;7220;49.450;11.052;2022-07-05T22:58:31;2.92;;;2.20;;
14272;SDS011;7220;49.450;11.052;2022-07-05T23:02:34;2.25;;;2.05;;
14272;SDS011;7220;49.450;11.052;2022-07-05T23:06:35;3.05;;;2.00;;
14272;SDS011;7220;49.450;11.052;2022-07-05T23:10:36;2.20;;;2.00;;
14272;SDS011;7220;49.450;11.052;2022-07-05T23:14:36;2.65;;;2.45;;
14272;SDS011;7220;49.450;11.052;2022-07-05T23:18:37;4.13;;;2.30;;
14272;SDS011;7220;49.450;11.052;2022-07-05T23:22:37;2.40;;;2.20;;
14272;SDS011;7220;49.450;11.052;2022-07-05T23:26:37;2.22;;;1.90;;
14272;SDS011;7220;49.450;11.052;2022-07-05T23:30:38;2.80;;;2.25;;
14272;SDS011;7220;49.450;11.052;2022-07-05T23:34:38;2.60;;;1.77;;
14272;SDS011;7220;49.450;11.052;2022-07-05T23:38:39;2.92;;;2.10;;
14272;SDS011;7220;49.450;11.052;2022-07-05T23:42:39;2.50;;;2.30;;
14272;SDS011;7220;49.450;11.052;2022-07-05T23:46:40;3.33;;;2.22;;
14272;SDS011;7220;49.450;11.052;2022-07-05T23:50:40;2.70;;;2.33;;
14272;SDS011;7220;49.450;11.052;2022-07-05T23:54:40;2.40;;;2.20;;
14272;SDS011;7220;49.450;11.052;2022-07-05T23:58:41;2.67;;;2.03;;
